• Join FlightAware (Why Join?)
  • Login
  • US Flag 
07:32AM EST


 

Airport Tracker/Info


-or-


 

Live Flight TrackerFlight Track Log ✈ AAY812 ✈ 10-Aug-2014 ✈ KPIE - KROA

Flight Track Log - Related Links

Times and Time Zones

All times are in EDT time to prevent confusion due to time zone crossing. See the AAY812 flight status page for this flight to view local times or setup timezone preferences in your user account.

Time Position Orientation Groundspeed Altitude Reporting Facility
EDT Latitude Longitude Course Direction KTS MPH feet Rate Location/Type
02:50PM 27.9000 -82.6833 180° South 191 220 700  Level Tampa TRACON
02:50PM 27.8667 -82.6833 180° South 174 200 1,900 1,824 Climbing Tampa TRACON
02:51PM 27.8167 -82.7000 196° South 214 246 3,800 1,800 Climbing Tampa TRACON
02:52PM 27.8000 -82.7667 254° West 259 298 5,500 2,211 Climbing Tampa TRACON
02:53PM 27.8667 -82.8000 336° Northwest 294 338 8,000 2,400 Climbing Tampa TRACON
02:54PM 27.9167 -82.7333 50° Northeast 314 361 10,300 1,421 Climbing Tampa TRACON
02:57PM 28.0725 -82.6244 32° Northeast 287 330 12,500 1,074 Climbing Jacksonville Center
02:58PM 28.1747 -82.6100 North 321 369 13,700 2,100 Climbing Jacksonville Center
02:59PM 28.2664 -82.5344 36° Northeast 365 420 16,700 2,500 Climbing Jacksonville Center
03:00PM 28.3494 -82.4586 39° Northeast 376 433 18,700 1,650 Climbing Jacksonville Center
03:01PM 28.4539 -82.4297 14° North 371 427 20,000 650 Climbing Jacksonville Center
03:02PM 28.5583 -82.4672 342° North 357 411 20,000  Level Jacksonville Center
03:03PM 28.6628 -82.5022 344° North 373 429 20,000 300 Level Jacksonville Center
03:04PM 28.7714 -82.5278 348° North 378 435 20,600 950 Climbing Jacksonville Center
03:05PM 28.8736 -82.5772 337° Northwest 389 448 21,900 1,200 Climbing Jacksonville Center
03:06PM 28.9617 -82.6625 320° Northwest 395 455 23,000 1,250 Climbing Jacksonville Center
03:07PM 29.0556 -82.7453 322° Northwest 419 482 24,400 1,150 Climbing Jacksonville Center
03:08PM 29.1497 -82.8308 322° Northwest 424 488 25,300 800 Climbing Jacksonville Center
03:09PM 29.2581 -82.8925 334° Northwest 429 494 26,000 500 Climbing Jacksonville Center
03:10PM 29.3772 -82.8686 10° North 407 468 26,300 600 Climbing Jacksonville Center
03:11PM 29.4919 -82.8497 North 426 490 27,200 1,000 Climbing Jacksonville Center
03:12PM 29.6131 -82.8161 14° North 441 507 28,300 1,250 Climbing Jacksonville Center
03:13PM 29.7342 -82.7803 14° North 446 513 29,700 1,250 Climbing Jacksonville Center
03:14PM 29.8572 -82.7561 10° North 446 513 30,800 1,000 Climbing Jacksonville Center
03:15PM 29.9844 -82.7536 North 446 513 31,700 850 Climbing Jacksonville Center
03:16PM 30.1078 -82.7436 North 446 513 32,500 600 Climbing Jacksonville Center
03:17PM 30.2350 -82.7364 North 446 513 32,900 250 Climbing Jacksonville Center
03:18PM 30.3583 -82.7192 North 440 506 33,000 50 Climbing Jacksonville Center
03:19PM 30.4836 -82.6972 North 445 512 33,000 -50 Level Jacksonville Center
03:20PM 30.6150 -82.6803 North 445 512 32,900 -50 Descending Jacksonville Center
03:21PM 30.7425 -82.6725 North 445 512 32,900 50 Level Jacksonville Center
03:22PM 30.8656 -82.6772 358° North 440 506 33,000 50 Climbing Jacksonville Center
03:23PM 30.9908 -82.6672 North 440 506 33,000  Level Jacksonville Center
03:24PM 31.1181 -82.6572 North 440 506 33,000  Level Jacksonville Center
03:25PM 31.2183 -82.6400 North 440 506 33,000  Level Jacksonville Center
03:26PM 31.3708 -82.6103 North 446 513 33,000  Level Jacksonville Center
03:27PM 31.4939 -82.5856 10° North 451 519 33,000  Level Jacksonville Center
03:28PM 31.6319 -82.5619 North 451 519 33,000  Level Atlanta Center
03:29PM 31.7567 -82.5369 10° North 454 522 33,000  Level Atlanta Center
03:30PM 31.8814 -82.5131 North 454 522 33,000  Level Atlanta Center
03:31PM 32.0047 -82.4894 North 449 517 33,000  Level Atlanta Center
03:32PM 32.1550 -82.4747 North 449 517 33,000  Level Atlanta Center
03:33PM 32.2675 -82.4717 North 448 516 33,000  Level Atlanta Center
03:34PM 32.4164 -82.4636 North 447 514 33,000  Level Atlanta Center
03:35PM 32.5417 -82.4681 358° North 449 517 33,000  Level Atlanta Center
03:36PM 32.6661 -82.4650 North 448 516 33,000  Level Atlanta Center
03:37PM 32.7908 -82.4669 359° North 448 516 33,000  Level Atlanta Center
03:38PM 32.9142 -82.4697 359° North 444 511 33,000  Level Atlanta Center
03:39PM 33.0619 -82.4747 358° North 445 512 33,000  Level Atlanta Center
03:40PM 33.1853 -82.4814 357° North 445 512 33,000  Level Atlanta Center
03:41PM 33.3178 -82.4814 360° North 449 517 33,000  Level Atlanta Center
03:42PM 33.4381 -82.4558 10° North 442 509 33,000  Level Atlanta Center
03:43PM 33.5583 -82.3967 22° Northeast 462 532 33,000  Level Atlanta Center
03:44PM 33.6772 -82.3450 20° North 457 526 33,000  Level Atlanta Center
03:45PM 33.8067 -82.2814 22° Northeast 469 540 33,000  Level Atlanta Center
03:46PM 33.9256 -82.2331 19° North 466 536 33,000  Level Atlanta Center
03:47PM 34.0647 -82.1644 22° Northeast 458 527 33,000  Level Atlanta Center
03:48PM 34.1839 -82.1133 20° North 458 527 33,000  Level Atlanta Center
03:50PM 34.3014 -82.0522 23° Northeast 460 529 33,000  Level Atlanta Center
03:51PM 34.4197 -82.0028 19° North 457 526 33,000 -192 Level Atlanta Center
03:52PM 34.5603 -81.9319 23° Northeast 458 527 32,600 -384 Descending Atlanta Center
03:53PM 34.6611 -81.8922 18° North 458 527 32,200 -484 Descending Atlanta Center
03:54PM 34.8025 -81.8206 23° Northeast 458 527 31,600 -532 Descending Atlanta Center
03:55PM 34.9233 -81.7681 20° North 459 528 31,100 -290 Descending Atlanta Center
03:56PM 35.0417 -81.7050 24° Northeast 464 534 31,000 -48 Descending Atlanta Center
03:57PM 35.1619 -81.6558 18° North 458 527 31,000  Level Atlanta Center
03:58PM 35.2800 -81.5950 23° Northeast 459 528 31,000  Level Atlanta Center
03:59PM 35.4256 -81.5344 19° North 459 528 31,000  Level Atlanta Center
04:00PM 35.5467 -81.4669 24° Northeast 469 540 31,000  Level Atlanta Center
04:01PM 35.6742 -81.4167 18° North 471 542 31,000 -288 Level Atlanta Center
04:02PM 35.7947 -81.3481 25° Northeast 461 531 30,400 -480 Descending Atlanta Center
04:03PM 35.9142 -81.2947 20° North 476 548 30,000 -194 Descending Atlanta Center
04:04PM 36.0350 -81.2281 24° Northeast 473 544 30,000  Level Atlanta Center
04:05PM 36.1547 -81.1761 19° North 453 521 30,000  Level Atlanta Center
04:06PM 36.2733 -81.1144 23° Northeast 463 533 30,000 -968 Level Atlanta Center
04:07PM 36.4203 -81.0469 20° North 473 544 28,000 -1,872 Descending Atlanta Center
04:08PM 36.5411 -80.9858 22° Northeast 476 548 26,100 -2,256 Descending Atlanta Center
04:09PM 36.6481 -80.9083 30° Northeast 457 526 23,300 -3,339 Descending Atlanta Center
04:10PM 36.7317 -80.7928 48° Northeast 451 519 19,200 -3,823 Descending Atlanta Center
04:11PM 36.8200 -80.6783 46° Northeast 435 501 15,400 -3,532 Descending Atlanta Center
04:12PM 36.8939 -80.5728 49° Northeast 405 466 11,900 -2,323 Descending Atlanta Center
04:13PM 36.9625 -80.4806 47° Northeast 357 411 10,600 -1,355 Descending Atlanta Center
04:14PM 37.0028 -80.3881 61° Northeast 306 352 9,100 -1,392 Descending Atlanta Center
04:15PM 37.0428 -80.2769 66° East 294 338 7,700 -1,392 Descending Atlanta Center
04:16PM 37.0689 -80.1836 71° East 289 333 6,200 -1,210 Descending Atlanta Center
04:17PM 37.0861 -80.0911 77° East 281 323 5,200 -484 Descending Atlanta Center
04:19PM 37.0978 -80.0181 79° East 241 277 5,200  Level Atlanta Center
04:20PM 37.1033 -79.9444 85° East 220 253 5,200 -387 Level Atlanta Center
04:21PM 37.1064 -79.8581 87° East 213 245 4,400 -576 Descending Atlanta Center
04:22PM 37.1453 -79.8369 23° Northeast 211 243 4,000 -288 Descending Atlanta Center
04:23PM 37.1919 -79.8772 325° Northwest 207 238 3,800 -532 Descending Atlanta Center
04:24PM 37.2364 -79.9108 329° Northwest 198 228 2,900 -823 Descending Atlanta Center
04:25PM 37.2714 -79.9386 328° Northwest 173 199 2,100 -726 Descending Atlanta Center
04:26PM 37.3061 -79.9675 327° Northwest 157 181 1,400 -677 Descending Atlanta Center